Time;durP1;ratioP1;P1;durP2;ratioP2;P2;SDS_P1;SDS_P2;PMS_P1;PMS_P2;Temp;Humidity;BMP_temperature;BMP_pressure;BME280_temperature;BME280_humidity;BME280_pressure;Samples;Min_cycle;Max_cycle;Signal;HPM_P1;HPM_P2
2021/06/03 00:00:53;;;;;;;7.03;6.30;;;15.20;81.40;;;;;;2063826;28;20505;-71
2021/06/03 00:01:54;;;;;;;6.40;5.80;;;15.10;81.40;;;;;;2055313;28;20113;-70
2021/06/03 00:02:55;;;;;;;6.90;6.20;;;15.10;81.50;;;;;;2055367;28;20450;-71
2021/06/03 00:03:56;;;;;;;6.45;5.85;;;15.10;81.50;;;;;;2064226;28;20053;-71
2021/06/03 00:04:57;;;;;;;6.80;5.78;;;15.10;81.60;;;;;;2053671;28;20034;-71
2021/06/03 00:06:00;;;;;;;6.43;5.72;;;15.10;81.50;;;;;;2055319;28;20018;-71
2021/06/03 00:07:00;;;;;;;6.72;6.00;;;15.10;81.70;;;;;;2054978;28;20019;-70
2021/06/03 00:08:01;;;;;;;6.65;5.88;;;15.10;81.70;;;;;;2055562;28;20034;-71
2021/06/03 00:09:02;;;;;;;6.50;5.80;;;15.10;81.70;;;;;;2063740;28;20038;-71
2021/06/03 00:10:06;;;;;;;7.57;6.13;;;15.10;82.00;;;;;;2063874;28;20027;-71
2021/06/03 00:11:11;;;;;;;6.95;6.10;;;15.00;82.30;;;;;;2064014;28;20062;-71
2021/06/03 00:12:11;;;;;;;7.10;6.40;;;15.00;82.40;;;;;;2063995;28;20110;-70
2021/06/03 00:13:13;;;;;;;8.80;6.00;;;15.00;82.50;;;;;;2063796;28;20022;-71
2021/06/03 00:14:13;;;;;;;6.85;6.15;;;15.00;83.30;;;;;;2063284;28;20401;-71
2021/06/03 00:15:15;;;;;;;6.60;6.00;;;15.00;82.70;;;;;;2064046;28;20026;-71
2021/06/03 00:16:16;;;;;;;6.75;6.05;;;15.00;82.70;;;;;;2063767;28;20034;-71
2021/06/03 00:17:17;;;;;;;6.65;5.95;;;15.00;82.80;;;;;;2055310;28;20038;-71
2021/06/03 00:18:18;;;;;;;6.13;5.53;;;14.90;82.80;;;;;;2055226;28;20939;-71
2021/06/03 00:19:19;;;;;;;7.15;5.97;;;14.90;82.80;;;;;;2063944;28;20049;-71
2021/06/03 00:20:23;;;;;;;6.82;6.13;;;14.90;82.70;;;;;;2063808;28;20023;-70
2021/06/03 00:21:24;;;;;;;7.78;6.20;;;14.90;82.80;;;;;;2064066;28;20030;-71
2021/06/03 00:22:25;;;;;;;6.72;6.03;;;14.90;82.90;;;;;;2064171;28;20042;-72
2021/06/03 00:23:26;;;;;;;6.65;5.95;;;14.90;82.90;;;;;;2063822;28;20041;-72
2021/06/03 00:24:26;;;;;;;6.82;6.22;;;14.90;82.70;;;;;;2063124;28;20417;-72
2021/06/03 00:25:27;;;;;;;6.88;6.18;;;14.90;82.70;;;;;;2063725;28;20561;-71
2021/06/03 00:26:29;;;;;;;7.50;5.82;;;14.90;82.70;;;;;;2064278;28;20034;-72
2021/06/03 00:27:29;;;;;;;6.30;5.70;;;14.90;82.70;;;;;;2064277;28;20430;-72
2021/06/03 00:28:30;;;;;;;6.90;6.20;;;14.90;82.70;;;;;;2063616;28;20030;-73
2021/06/03 00:29:30;;;;;;;7.18;6.10;;;14.90;82.50;;;;;;2064205;28;20113;-73
2021/06/03 00:30:32;;;;;;;6.97;6.10;;;14.90;82.50;;;;;;2063956;28;20409;-73
2021/06/03 00:31:33;;;;;;;6.82;6.10;;;14.90;82.70;;;;;;2063855;28;20043;-73
2021/06/03 00:32:34;;;;;;;6.93;6.10;;;14.90;82.70;;;;;;2063980;28;20080;-72
2021/06/03 00:33:35;;;;;;;8.27;6.57;;;14.80;82.70;;;;;;2063966;28;20062;-73
2021/06/03 00:34:35;;;;;;;8.88;7.10;;;14.80;83.00;;;;;;2062165;28;20030;-72
2021/06/03 00:35:36;;;;;;;8.50;7.28;;;14.80;83.00;;;;;;2064185;28;20027;-74
2021/06/03 00:36:37;;;;;;;9.57;8.55;;;14.80;83.30;;;;;;2063835;28;20070;-72
2021/06/03 00:37:38;;;;;;;9.18;8.18;;;14.80;83.30;;;;;;2064717;28;20116;-71
2021/06/03 00:38:40;;;;;;;10.68;8.27;;;14.80;83.50;;;;;;2064410;28;20080;-71
2021/06/03 00:39:41;;;;;;;10.02;9.02;;;14.80;83.70;;;;;;2064395;28;20102;-72
2021/06/03 00:40:41;;;;;;;14.23;11.32;;;14.80;83.70;;;;;;2064066;28;20038;-71
2021/06/03 00:41:42;;;;;;;14.63;11.27;;;14.80;83.60;;;;;;2064188;28;20057;-71
2021/06/03 00:42:43;;;;;;;13.35;11.30;;;14.80;83.80;;;;;;2064184;28;20058;-72
2021/06/03 00:43:44;;;;;;;15.07;11.90;;;14.70;83.80;;;;;;2056160;28;20101;-73
2021/06/03 00:44:45;;;;;;;15.85;12.40;;;14.80;84.10;;;;;;2054812;28;20114;-72
2021/06/03 00:45:46;;;;;;;15.13;12.45;;;14.70;84.30;;;;;;2063957;28;20029;-73
2021/06/03 00:46:46;;;;;;;14.98;11.85;;;14.70;84.20;;;;;;2064042;28;20015;-73
2021/06/03 00:47:47;;;;;;;14.40;11.40;;;14.70;84.60;;;;;;2064320;28;20030;-72
2021/06/03 00:48:48;;;;;;;13.50;11.15;;;14.70;85.10;;;;;;2064320;28;20154;-73
2021/06/03 00:49:48;;;;;;;13.30;10.77;;;14.70;85.40;;;;;;2064551;28;20034;-72
2021/06/03 00:50:52;;;;;;;14.77;10.93;;;14.70;85.70;;;;;;2055928;28;20025;-72
2021/06/03 00:51:53;;;;;;;14.32;11.30;;;14.70;85.90;;;;;;2055859;28;20042;-72
2021/06/03 00:52:54;;;;;;;12.60;10.50;;;14.70;86.00;;;;;;2055408;28;20603;-73
2021/06/03 00:53:57;;;;;;;13.93;10.05;;;14.60;86.10;;;;;;2047337;28;20038;-73
2021/06/03 00:54:57;;;;;;;11.82;9.50;;;14.60;86.50;;;;;;2046358;28;20062;-72
2021/06/03 00:55:59;;;;;;;10.93;9.20;;;14.60;86.60;;;;;;2055401;28;20106;-72
2021/06/03 00:57:03;;;;;;;11.85;9.25;;;14.60;87.00;;;;;;2055475;28;20050;-73
2021/06/03 00:58:06;;;;;;;9.75;8.73;;;14.60;86.60;;;;;;2055790;28;20078;-72
2021/06/03 00:59:07;;;;;;;11.48;8.32;;;14.60;86.80;;;;;;2055326;28;20031;-72
2021/06/03 01:00:13;;;;;;;11.30;8.43;;;14.60;86.80;;;;;;2055407;28;20348;-73
2021/06/03 01:01:14;;;;;;;8.95;8.05;;;14.50;86.80;;;;;;2055656;28;20418;-73
2021/06/03 01:02:15;;;;;;;10.75;8.05;;;14.60;87.00;;;;;;2055539;28;20033;-73
2021/06/03 01:03:17;;;;;;;9.13;8.23;;;14.50;87.00;;;;;;2054995;28;20542;-73
2021/06/03 01:04:21;;;;;;;8.88;7.88;;;14.50;87.10;;;;;;2054873;28;20078;-73
2021/06/03 01:05:26;;;;;;;8.65;7.63;;;14.50;87.00;;;;;;2063189;28;20031;-72
2021/06/03 01:06:27;;;;;;;9.70;7.57;;;14.50;87.10;;;;;;2063708;28;20029;-73
2021/06/03 01:07:28;;;;;;;8.93;7.60;;;14.50;87.30;;;;;;2065220;28;20049;-72
2021/06/03 01:08:34;;;;;;;8.23;7.32;;;14.50;87.60;;;;;;2056749;28;20818;-72
2021/06/03 01:09:47;;;;;;;8.50;7.00;;;14.50;88.10;;;;;;2056608;28;20042;-72
2021/06/03 01:11:03;;;;;;;8.27;7.30;;;14.50;88.50;;;;;;2058156;28;20083;-74
2021/06/03 01:12:21;;;;;;;9.55;7.25;;;14.50;89.00;;;;;;2056918;28;20502;-74
2021/06/03 01:13:49;;;;;;;8.60;6.97;;;14.50;88.60;;;;;;2056606;28;20550;-74
2021/06/03 01:14:58;;;;;;;7.93;7.10;;;14.50;88.40;;;;;;2059904;28;20038;-72
2021/06/03 01:16:02;;;;;;;8.45;6.55;;;14.40;88.30;;;;;;2064808;28;20030;-74
2021/06/03 01:17:04;;;;;;;7.82;7.00;;;14.40;88.20;;;;;;2056632;28;20608;-74
2021/06/03 01:18:05;;;;;;;8.35;7.00;;;14.40;88.00;;;;;;2056945;28;20026;-74
2021/06/03 01:19:14;;;;;;;8.48;6.78;;;14.40;87.90;;;;;;2056379;28;20031;-72
2021/06/03 01:20:16;;;;;;;7.70;6.50;;;14.40;87.90;;;;;;2056598;28;20035;-71
2021/06/03 01:21:40;;;;;;;8.00;7.20;;;14.30;87.70;;;;;;2056978;28;20019;-72
2021/06/03 01:23:19;;;;;;;7.65;6.88;;;14.30;87.60;;;;;;2065848;28;20086;-73
2021/06/03 01:24:24;;;;;;;8.07;6.60;;;14.30;87.70;;;;;;2053616;28;20039;-70
2021/06/03 01:25:26;;;;;;;9.48;7.18;;;14.40;87.80;;;;;;2056900;28;20019;-71
2021/06/03 01:26:27;;;;;;;9.07;7.38;;;14.30;87.50;;;;;;2065192;28;20518;-71
2021/06/03 01:27:31;;;;;;;9.07;6.93;;;14.30;87.30;;;;;;2064766;28;20042;-71
2021/06/03 01:28:35;;;;;;;8.50;6.97;;;14.30;87.40;;;;;;2065063;28;20105;-71
2021/06/03 01:29:45;;;;;;;9.35;7.22;;;14.30;87.30;;;;;;2056258;28;20038;-71
2021/06/03 01:30:50;;;;;;;9.32;7.40;;;14.30;87.40;;;;;;2058286;28;20110;-71
2021/06/03 01:31:53;;;;;;;9.23;7.40;;;14.30;87.20;;;;;;2065227;28;20226;-71
2021/06/03 01:33:01;;;;;;;9.02;7.63;;;14.30;87.30;;;;;;2064630;28;20501;-72
2021/06/03 01:34:03;;;;;;;8.75;7.85;;;14.30;87.30;;;;;;2064487;28;20031;-75
2021/06/03 01:35:10;;;;;;;9.05;8.00;;;14.30;87.10;;;;;;2054199;28;20058;-72
2021/06/03 01:36:14;;;;;;;8.48;7.25;;;14.30;87.30;;;;;;2061415;28;20058;-71
2021/06/03 01:37:16;;;;;;;8.95;7.82;;;14.30;87.10;;;;;;2058899;28;20101;-70
2021/06/03 01:38:20;;;;;;;9.77;7.93;;;14.30;87.00;;;;;;2048666;28;20570;-71
2021/06/03 01:39:21;;;;;;;10.25;8.15;;;14.30;86.90;;;;;;2056835;28;20090;-71
2021/06/03 01:40:24;;;;;;;9.20;7.90;;;14.30;86.70;;;;;;2064926;28;20109;-71
2021/06/03 01:41:25;;;;;;;10.25;8.50;;;14.20;86.60;;;;;;2056249;28;20034;-71
2021/06/03 01:42:27;;;;;;;11.27;8.27;;;14.20;86.40;;;;;;2056194;28;20043;-71
2021/06/03 01:43:30;;;;;;;8.95;7.90;;;14.20;87.50;;;;;;2055873;28;20027;-71
2021/06/03 01:44:33;;;;;;;8.88;7.40;;;14.20;86.80;;;;;;2055818;28;20015;-71
2021/06/03 01:45:34;;;;;;;8.82;7.65;;;14.20;87.00;;;;;;2064706;28;20490;-71
2021/06/03 01:46:35;;;;;;;9.68;7.32;;;14.20;87.00;;;;;;2056211;28;20035;-71
2021/06/03 01:47:37;;;;;;;8.57;7.68;;;14.20;86.90;;;;;;2056579;28;20437;-71
2021/06/03 01:48:38;;;;;;;10.27;7.47;;;14.20;86.60;;;;;;2064959;28;20037;-71
2021/06/03 01:49:42;;;;;;;9.25;7.88;;;14.20;86.50;;;;;;2064890;28;20022;-71
2021/06/03 01:50:46;;;;;;;9.25;7.85;;;14.20;86.40;;;;;;2064914;28;20026;-72
2021/06/03 01:51:47;;;;;;;10.25;7.70;;;14.20;86.30;;;;;;2064743;28;20556;-71
2021/06/03 01:52:51;;;;;;;8.13;7.18;;;14.20;86.20;;;;;;2056307;28;20061;-71
2021/06/03 01:53:52;;;;;;;8.60;7.70;;;14.20;86.40;;;;;;2056406;28;20110;-73
2021/06/03 01:54:53;;;;;;;8.18;7.38;;;14.20;86.30;;;;;;2055517;28;20422;-73
2021/06/03 01:55:55;;;;;;;8.63;7.35;;;14.20;86.10;;;;;;2056304;28;20039;-73
2021/06/03 01:56:57;;;;;;;8.90;7.63;;;14.10;86.10;;;;;;2056112;28;20023;-73
2021/06/03 01:58:00;;;;;;;9.63;7.45;;;14.10;86.20;;;;;;2064589;28;20125;-73
2021/06/03 01:59:13;;;;;;;8.98;7.40;;;14.20;86.30;;;;;;2065116;28;20659;-73
2021/06/03 02:00:17;;;;;;;9.18;7.65;;;14.20;86.10;;;;;;2064502;28;20030;-73
2021/06/03 02:01:21;;;;;;;9.07;7.55;;;14.10;85.90;;;;;;2065098;28;20473;-73
2021/06/03 02:02:22;;;;;;;9.85;7.40;;;14.10;85.80;;;;;;2056528;28;20031;-73
2021/06/03 02:03:25;;;;;;;8.68;7.57;;;14.10;85.80;;;;;;2056371;28;20737;-73
2021/06/03 02:04:25;;;;;;;8.30;7.35;;;14.10;86.00;;;;;;2063660;28;20026;-73
2021/06/03 02:05:28;;;;;;;9.90;7.80;;;14.10;86.20;;;;;;2063616;28;20481;-73
2021/06/03 02:06:32;;;;;;;9.93;7.70;;;14.10;86.00;;;;;;2063885;28;20061;-73
2021/06/03 02:07:36;;;;;;;9.77;7.68;;;14.10;86.10;;;;;;2056506;28;20509;-73
2021/06/03 02:08:38;;;;;;;8.07;7.28;;;14.10;86.20;;;;;;2057027;28;20478;-73
2021/06/03 02:09:44;;;;;;;8.75;7.45;;;14.10;86.20;;;;;;2048141;29;20102;-73
2021/06/03 02:10:48;;;;;;;8.68;7.60;;;14.10;86.30;;;;;;2048471;28;20081;-73
2021/06/03 02:11:50;;;;;;;9.70;7.70;;;14.10;86.30;;;;;;2057266;28;20030;-73
2021/06/03 02:13:05;;;;;;;9.05;7.60;;;14.10;86.30;;;;;;2057079;28;20038;-73
2021/06/03 02:14:09;;;;;;;8.23;7.32;;;14.10;86.40;;;;;;2047442;29;20612;-72
2021/06/03 02:15:27;;;;;;;10.88;7.68;;;14.10;86.40;;;;;;2049828;28;20720;-73
2021/06/03 02:16:40;;;;;;;8.95;7.38;;;14.00;86.30;;;;;;2048096;29;20090;-73
2021/06/03 02:17:46;;;;;;;8.77;7.47;;;14.10;86.50;;;;;;2048855;28;20054;-73
2021/06/03 02:18:56;;;;;;;8.10;7.30;;;14.10;86.60;;;;;;2055332;28;20023;-73
2021/06/03 02:20:10;;;;;;;9.45;7.60;;;14.10;86.40;;;;;;2049989;28;20023;-73
2021/06/03 02:21:14;;;;;;;8.80;7.25;;;14.10;86.40;;;;;;2048006;29;20178;-72
2021/06/03 02:22:16;;;;;;;8.43;7.50;;;14.10;86.20;;;;;;2048081;28;20708;-72
2021/06/03 02:23:20;;;;;;;10.98;7.70;;;14.10;86.10;;;;;;2047856;29;20035;-72
2021/06/03 02:24:26;;;;;;;8.45;7.45;;;14.10;86.20;;;;;;2047692;28;20035;-72
2021/06/03 02:25:29;;;;;;;11.77;8.02;;;14.10;86.30;;;;;;2055918;28;20078;-72
2021/06/03 02:26:31;;;;;;;8.60;7.55;;;14.10;86.10;;;;;;2048066;29;20098;-72
2021/06/03 02:27:39;;;;;;;8.38;7.30;;;14.10;86.00;;;;;;2049275;28;20035;-72
2021/06/03 02:28:43;;;;;;;8.88;7.57;;;14.10;86.00;;;;;;2047138;29;20547;-72
2021/06/03 02:29:44;;;;;;;8.35;7.28;;;14.10;86.20;;;;;;2048530;28;20019;-72
2021/06/03 02:30:51;;;;;;;8.55;7.47;;;14.10;86.60;;;;;;2056582;28;20041;-72
2021/06/03 02:31:54;;;;;;;8.80;7.47;;;14.10;86.70;;;;;;2057439;28;20089;-72
2021/06/03 02:32:54;;;;;;;8.82;7.72;;;14.10;87.00;;;;;;2058449;28;20441;-72
2021/06/03 02:33:57;;;;;;;9.23;7.38;;;14.10;87.00;;;;;;2058234;28;20057;-72
2021/06/03 02:34:58;;;;;;;9.10;7.60;;;14.10;86.80;;;;;;2054737;28;20510;-72
2021/06/03 02:36:02;;;;;;;10.27;7.47;;;14.10;86.80;;;;;;2053860;28;20035;-73
2021/06/03 02:37:11;;;;;;;10.00;7.50;;;14.00;86.90;;;;;;2061225;28;20030;-72
2021/06/03 02:38:16;;;;;;;8.70;7.40;;;14.00;86.60;;;;;;2057585;28;20039;-72
2021/06/03 02:39:18;;;;;;;9.48;7.70;;;14.00;86.50;;;;;;2049876;28;20027;-72
2021/06/03 02:40:25;;;;;;;8.43;7.38;;;14.00;86.40;;;;;;2057110;28;20110;-72
2021/06/03 02:41:28;;;;;;;8.90;7.15;;;14.00;86.20;;;;;;2058305;28;20038;-72
2021/06/03 02:42:29;;;;;;;8.93;7.40;;;14.00;85.90;;;;;;2056228;28;20031;-72
2021/06/03 02:43:31;;;;;;;8.82;7.50;;;14.00;85.70;;;;;;2056018;28;20557;-74
2021/06/03 02:44:33;;;;;;;7.95;7.15;;;14.00;85.70;;;;;;2063521;28;20045;-72
2021/06/03 02:45:36;;;;;;;11.80;7.00;;;14.00;85.50;;;;;;2063982;28;20076;-72
2021/06/03 02:46:38;;;;;;;7.82;7.03;;;14.10;85.50;;;;;;2064323;28;20113;-72
2021/06/03 02:47:42;;;;;;;8.63;7.03;;;14.10;85.20;;;;;;2063940;28;20054;-72
2021/06/03 02:48:45;;;;;;;8.95;7.50;;;14.10;85.00;;;;;;2063775;28;20026;-72
2021/06/03 02:49:45;;;;;;;7.97;7.18;;;14.10;84.90;;;;;;2055964;28;20042;-72
2021/06/03 02:50:48;;;;;;;8.43;7.25;;;14.10;84.80;;;;;;2056024;28;20026;-72
2021/06/03 02:51:48;;;;;;;9.55;7.68;;;14.10;84.80;;;;;;2055945;28;20795;-72
2021/06/03 02:52:53;;;;;;;8.35;7.45;;;14.10;84.80;;;;;;2064156;28;20034;-72
2021/06/03 02:53:55;;;;;;;9.32;7.50;;;14.10;84.80;;;;;;2056608;28;20069;-73
2021/06/03 02:55:04;;;;;;;8.98;7.47;;;14.10;84.50;;;;;;2063324;28;20037;-73
2021/06/03 02:56:06;;;;;;;8.63;7.53;;;14.10;84.60;;;;;;2063955;28;20112;-73
2021/06/03 02:57:08;;;;;;;8.95;7.20;;;14.10;84.20;;;;;;2064260;28;20033;-73
2021/06/03 02:58:10;;;;;;;9.98;7.15;;;14.10;83.80;;;;;;2064999;28;20441;-73
2021/06/03 02:59:15;;;;;;;8.43;7.03;;;14.10;83.70;;;;;;2063793;28;20034;-73
2021/06/03 03:00:20;;;;;;;9.30;7.22;;;14.10;83.50;;;;;;2055775;28;20019;-73
2021/06/03 03:01:21;;;;;;;8.60;7.40;;;14.10;83.50;;;;;;2056633;28;20042;-73
2021/06/03 03:02:23;;;;;;;8.65;7.57;;;14.20;83.50;;;;;;2056197;28;20042;-73
2021/06/03 03:03:25;;;;;;;9.20;6.95;;;14.20;83.40;;;;;;2055867;28;20578;-73
2021/06/03 03:04:25;;;;;;;8.48;7.43;;;14.20;83.30;;;;;;2055547;28;20081;-73
2021/06/03 03:05:27;;;;;;;9.07;7.53;;;14.20;83.00;;;;;;2055664;28;20026;-73
2021/06/03 03:06:28;;;;;;;10.65;7.93;;;14.20;82.90;;;;;;2063310;28;20034;-73
2021/06/03 03:07:28;;;;;;;9.63;7.63;;;14.20;82.70;;;;;;2056623;28;20058;-73
2021/06/03 03:08:30;;;;;;;8.32;7.28;;;14.20;82.80;;;;;;2048819;29;20031;-73
2021/06/03 03:09:31;;;;;;;12.90;7.63;;;14.20;83.00;;;;;;2057168;28;20500;-73
2021/06/03 03:10:36;;;;;;;8.93;7.35;;;14.30;83.20;;;;;;2056842;28;20065;-73
2021/06/03 03:11:38;;;;;;;9.48;7.40;;;14.20;83.20;;;;;;2057545;28;20033;-73
2021/06/03 03:12:41;;;;;;;9.35;7.63;;;14.30;83.30;;;;;;2047832;29;20043;-73
2021/06/03 03:13:45;;;;;;;10.38;7.68;;;14.30;83.20;;;;;;2049042;28;20027;-73
2021/06/03 03:14:48;;;;;;;9.27;8.10;;;14.30;83.60;;;;;;2056002;28;20428;-73
2021/06/03 03:15:50;;;;;;;10.57;7.88;;;14.20;83.60;;;;;;2048059;28;20546;-73
2021/06/03 03:16:51;;;;;;;9.50;7.75;;;14.20;83.70;;;;;;2056688;28;20042;-73
2021/06/03 03:17:54;;;;;;;9.80;7.82;;;14.20;83.80;;;;;;2064149;28;20030;-73
2021/06/03 03:18:54;;;;;;;11.80;7.82;;;14.20;83.80;;;;;;2064466;28;20022;-73
2021/06/03 03:19:55;;;;;;;9.93;8.02;;;14.20;84.10;;;;;;2055789;28;20062;-73
2021/06/03 03:20:56;;;;;;;12.25;8.18;;;14.20;84.20;;;;;;2055746;28;20114;-73
2021/06/03 03:21:58;;;;;;;10.57;7.72;;;14.20;84.40;;;;;;2063944;28;20402;-72
2021/06/03 03:22:59;;;;;;;11.32;8.23;;;14.20;84.60;;;;;;2055662;28;20025;-73
2021/06/03 03:24:01;;;;;;;10.40;8.13;;;14.20;84.70;;;;;;2055753;28;20023;-73
2021/06/03 03:25:02;;;;;;;12.63;7.88;;;14.20;84.80;;;;;;2063565;28;20118;-73
2021/06/03 03:26:02;;;;;;;9.38;7.18;;;14.20;85.00;;;;;;2055880;28;20031;-73
2021/06/03 03:27:04;;;;;;;14.55;8.02;;;14.20;85.10;;;;;;2056022;28;20050;-73
2021/06/03 03:28:07;;;;;;;12.98;8.52;;;14.20;85.10;;;;;;2064898;28;20030;-73
2021/06/03 03:29:07;;;;;;;13.40;8.00;;;14.20;84.90;;;;;;2047508;28;20019;-73
2021/06/03 03:30:09;;;;;;;12.80;8.32;;;14.20;84.90;;;;;;2047425;28;20046;-73
2021/06/03 03:31:10;;;;;;;9.95;8.02;;;14.20;85.10;;;;;;2064310;28;20038;-72
2021/06/03 03:32:11;;;;;;;11.38;7.85;;;14.20;85.20;;;;;;2055863;28;20459;-73
2021/06/03 03:33:14;;;;;;;10.63;7.90;;;14.20;85.40;;;;;;2047890;29;20034;-74
2021/06/03 03:34:14;;;;;;;9.43;7.63;;;14.20;85.50;;;;;;2055351;28;20019;-72
2021/06/03 03:35:16;;;;;;;9.65;7.60;;;14.20;85.70;;;;;;2054349;28;20121;-72
2021/06/03 03:36:17;;;;;;;10.52;7.65;;;14.20;85.70;;;;;;2061088;28;20030;-72
2021/06/03 03:37:22;;;;;;;9.60;7.75;;;14.20;85.60;;;;;;2064220;28;20049;-72
2021/06/03 03:38:23;;;;;;;9.98;8.02;;;14.20;85.50;;;;;;2064373;28;20050;-72
2021/06/03 03:39:26;;;;;;;10.27;8.25;;;14.30;85.90;;;;;;2055578;28;20059;-72
2021/06/03 03:40:28;;;;;;;10.75;7.80;;;14.30;85.70;;;;;;2055628;28;20094;-73
2021/06/03 03:41:32;;;;;;;11.50;8.02;;;14.30;85.50;;;;;;2063818;28;20035;-71
2021/06/03 03:42:34;;;;;;;9.63;7.38;;;14.30;85.50;;;;;;2055373;28;20023;-73
2021/06/03 03:43:38;;;;;;;9.55;7.32;;;14.30;85.50;;;;;;2055399;28;20043;-72
2021/06/03 03:44:38;;;;;;;8.93;7.43;;;14.40;85.20;;;;;;2054836;28;20026;-72
2021/06/03 03:45:39;;;;;;;8.18;6.95;;;14.40;84.80;;;;;;2055161;28;20073;-72
2021/06/03 03:46:40;;;;;;;8.55;6.82;;;14.40;84.40;;;;;;2055603;28;20469;-72
2021/06/03 03:47:44;;;;;;;9.68;7.18;;;14.50;84.30;;;;;;2055612;28;20022;-73
2021/06/03 03:48:44;;;;;;;8.43;7.38;;;14.50;84.00;;;;;;2055994;28;20549;-73
2021/06/03 03:49:46;;;;;;;9.45;7.00;;;14.60;83.90;;;;;;2047312;29;20435;-73
2021/06/03 03:50:51;;;;;;;8.52;6.90;;;14.60;83.70;;;;;;2048022;28;20038;-73
2021/06/03 03:52:00;;;;;;;7.75;6.30;;;14.70;83.50;;;;;;2048006;28;20055;-73
2021/06/03 03:53:03;;;;;;;8.60;6.88;;;14.70;83.40;;;;;;2047868;28;20042;-73
2021/06/03 03:54:04;;;;;;;9.02;7.15;;;14.80;83.20;;;;;;2046992;28;20668;-72
2021/06/03 03:55:07;;;;;;;7.68;6.88;;;14.80;83.00;;;;;;2047090;28;20066;-73
2021/06/03 03:56:09;;;;;;;8.60;7.03;;;14.90;82.70;;;;;;2055612;28;20046;-73
2021/06/03 03:57:12;;;;;;;7.88;6.70;;;15.00;82.20;;;;;;2055464;28;20126;-73
2021/06/03 03:58:13;;;;;;;9.93;7.22;;;15.00;81.80;;;;;;2055401;28;20141;-73
2021/06/03 03:59:14;;;;;;;8.77;7.15;;;15.10;81.50;;;;;;2055312;28;20391;-73
2021/06/03 04:00:19;;;;;;;9.55;6.97;;;15.20;81.10;;;;;;2063717;28;20429;-73
2021/06/03 04:01:30;;;;;;;7.85;6.63;;;15.30;80.70;;;;;;2063955;28;20058;-73
2021/06/03 04:02:31;;;;;;;7.18;6.28;;;15.30;80.30;;;;;;2064201;28;20022;-73
2021/06/03 04:03:32;;;;;;;7.50;6.57;;;15.50;79.80;;;;;;2064154;28;20486;-73
2021/06/03 04:04:35;;;;;;;7.78;6.45;;;15.60;79.30;;;;;;2053789;28;20545;-73
2021/06/03 04:05:38;;;;;;;7.90;6.45;;;15.80;78.50;;;;;;2055747;28;20019;-73
2021/06/03 04:06:43;;;;;;;7.88;6.32;;;16.20;77.60;;;;;;2063141;28;20033;-73
2021/06/03 04:07:45;;;;;;;8.73;6.38;;;16.50;76.00;;;;;;2055417;28;20118;-73
2021/06/03 04:08:46;;;;;;;7.40;6.55;;;17.00;74.80;;;;;;2055844;28;20027;-73
2021/06/03 04:09:48;;;;;;;7.35;6.25;;;17.40;72.10;;;;;;2064090;28;20033;-73
2021/06/03 04:10:49;;;;;;;8.18;6.30;;;17.90;69.90;;;;;;2055436;28;20045;-73
2021/06/03 04:11:51;;;;;;;7.55;6.20;;;18.30;66.90;;;;;;2055636;28;20106;-73
2021/06/03 04:12:53;;;;;;;8.77;5.80;;;18.70;63.70;;;;;;2055119;28;20060;-73
2021/06/03 04:13:55;;;;;;;7.03;5.60;;;19.10;61.30;;;;;;2054935;28;20026;-73
2021/06/03 04:14:57;;;;;;;8.75;6.25;;;19.40;59.70;;;;;;2055015;28;20114;-73
2021/06/03 04:15:58;;;;;;;7.45;5.85;;;19.80;58.30;;;;;;2064025;28;20405;-73
2021/06/03 04:16:59;;;;;;;7.00;6.00;;;20.10;57.10;;;;;;2055383;28;20437;-73
2021/06/03 04:18:00;;;;;;;9.07;6.07;;;20.40;56.60;;;;;;2055312;28;20058;-73
2021/06/03 04:19:01;;;;;;;7.60;5.82;;;20.60;55.40;;;;;;2063967;28;20022;-73
2021/06/03 04:20:14;;;;;;;7.97;5.40;;;20.80;54.90;;;;;;2055253;28;20074;-73
2021/06/03 04:21:16;;;;;;;9.73;5.82;;;21.10;54.00;;;;;;2055374;28;20551;-73
2021/06/03 04:22:17;;;;;;;6.63;5.13;;;21.20;53.20;;;;;;2055076;28;20092;-73
2021/06/03 04:23:17;;;;;;;8.30;5.70;;;21.50;53.00;;;;;;2055362;28;20023;-73
2021/06/03 04:24:22;;;;;;;8.25;5.60;;;21.70;52.90;;;;;;2055105;28;20030;-73
2021/06/03 04:25:25;;;;;;;6.18;5.25;;;21.90;52.50;;;;;;2046990;29;20038;-73
2021/06/03 04:26:27;;;;;;;8.60;6.00;;;22.10;51.40;;;;;;2047887;28;20035;-73
2021/06/03 04:27:27;;;;;;;12.40;5.97;;;22.00;50.60;;;;;;2063855;28;20031;-73
2021/06/03 04:28:28;;;;;;;7.40;5.50;;;21.90;49.90;;;;;;2064143;28;20081;-73
2021/06/03 04:29:29;;;;;;;7.72;5.40;;;21.80;50.60;;;;;;2063928;28;20031;-73
2021/06/03 04:30:30;;;;;;;8.32;5.50;;;21.80;50.60;;;;;;2063933;28;20533;-73
2021/06/03 04:31:31;;;;;;;6.72;5.32;;;21.90;50.70;;;;;;2063960;28;20030;-73
2021/06/03 04:32:32;;;;;;;6.72;5.28;;;22.10;50.80;;;;;;2064322;28;20030;-74
2021/06/03 04:33:32;;;;;;;6.85;5.43;;;22.20;50.60;;;;;;2064610;28;20030;-73
2021/06/03 04:34:34;;;;;;;6.25;5.00;;;22.30;50.00;;;;;;2062874;28;20045;-73
2021/06/03 04:35:35;;;;;;;6.80;5.32;;;22.50;49.60;;;;;;2054915;28;20142;-73
2021/06/03 04:36:35;;;;;;;6.53;5.28;;;22.70;49.30;;;;;;2063143;28;20539;-73
2021/06/03 04:37:36;;;;;;;7.38;5.32;;;22.80;49.00;;;;;;2055292;28;20047;-73
2021/06/03 04:38:37;;;;;;;9.15;5.82;;;22.90;48.50;;;;;;2055232;28;20060;-73
2021/06/03 04:39:38;;;;;;;5.82;5.15;;;22.90;48.00;;;;;;2054985;28;20042;-73
2021/06/03 04:40:38;;;;;;;8.45;5.35;;;22.80;48.10;;;;;;2063925;28;20072;-73
2021/06/03 04:41:39;;;;;;;5.38;4.80;;;22.90;48.00;;;;;;2055935;28;20042;-74
2021/06/03 04:42:40;;;;;;;9.15;5.35;;;22.90;48.00;;;;;;2056979;28;20056;-73
2021/06/03 04:43:42;;;;;;;7.22;5.40;;;22.60;47.20;;;;;;2065144;28;20784;-73
2021/06/03 04:44:43;;;;;;;6.43;5.13;;;22.50;47.80;;;;;;2055982;28;20038;-73
2021/06/03 04:45:43;;;;;;;6.78;4.97;;;22.50;47.70;;;;;;2057122;28;20030;-73
2021/06/03 04:46:44;;;;;;;9.25;5.78;;;22.60;47.70;;;;;;2065539;28;20030;-73
2021/06/03 04:47:45;;;;;;;6.78;5.63;;;22.70;47.80;;;;;;2065608;28;20023;-73
2021/06/03 04:48:46;;;;;;;10.80;5.63;;;22.50;47.50;;;;;;2065418;28;20018;-73
2021/06/03 04:49:47;;;;;;;7.55;6.03;;;22.50;47.70;;;;;;2065636;28;20030;-73
2021/06/03 04:50:47;;;;;;;10.07;5.53;;;22.40;47.70;;;;;;2065123;28;20552;-74
2021/06/03 04:51:48;;;;;;;8.20;5.28;;;22.10;47.90;;;;;;2065760;28;20030;-74
2021/06/03 04:52:49;;;;;;;11.00;5.82;;;22.20;48.10;;;;;;2065672;28;20109;-74
2021/06/03 04:53:53;;;;;;;8.93;5.35;;;22.20;48.10;;;;;;2057022;28;20031;-74
2021/06/03 04:54:58;;;;;;;7.13;5.20;;;22.20;48.50;;;;;;2056189;28;20070;-74
2021/06/03 04:55:59;;;;;;;9.50;5.40;;;22.40;48.50;;;;;;2064872;28;20367;-74
2021/06/03 04:57:01;;;;;;;7.00;5.15;;;22.50;47.70;;;;;;2057178;28;20035;-74
2021/06/03 04:58:04;;;;;;;7.20;5.50;;;22.70;47.50;;;;;;2057333;28;20050;-74
2021/06/03 04:59:05;;;;;;;7.18;5.20;;;22.60;47.50;;;;;;2065638;28;20033;-74
2021/06/03 05:00:09;;;;;;;6.35;5.20;;;22.80;47.30;;;;;;2056673;28;20444;-73
2021/06/03 05:01:10;;;;;;;6.88;5.45;;;23.10;46.70;;;;;;2057170;28;20037;-74
2021/06/03 05:02:10;;;;;;;7.57;5.68;;;23.10;46.40;;;;;;2057095;28;20442;-74
2021/06/03 05:03:13;;;;;;;8.77;5.90;;;23.30;46.40;;;;;;2057121;28;20387;-74
2021/06/03 05:04:15;;;;;;;8.13;5.53;;;23.50;46.10;;;;;;2056727;28;20042;-74
2021/06/03 05:05:16;;;;;;;7.82;5.47;;;23.60;46.00;;;;;;2048237;29;20114;-74
2021/06/03 05:06:17;;;;;;;9.13;5.43;;;23.70;45.50;;;;;;2049362;29;20031;-74
2021/06/03 05:07:18;;;;;;;7.65;5.63;;;23.60;45.00;;;;;;2062918;28;20041;-74
2021/06/03 05:08:19;;;;;;;10.23;5.63;;;23.80;44.80;;;;;;2056881;28;20037;-74
2021/06/03 05:09:19;;;;;;;6.93;5.68;;;24.00;44.30;;;;;;2056983;28;20038;-74
2021/06/03 05:10:22;;;;;;;10.50;5.80;;;24.10;44.30;;;;;;2065995;28;20402;-74
2021/06/03 05:11:22;;;;;;;7.10;5.15;;;24.30;43.80;;;;;;2065654;28;20062;-74
2021/06/03 05:12:23;;;;;;;7.38;5.30;;;24.30;44.30;;;;;;2066104;28;20394;-73
2021/06/03 05:13:24;;;;;;;5.53;4.60;;;24.60;43.90;;;;;;2065972;28;20442;-73
2021/06/03 05:14:24;;;;;;;8.60;5.28;;;24.80;43.40;;;;;;2065161;28;20034;-73
2021/06/03 05:15:26;;;;;;;6.75;4.78;;;24.90;43.00;;;;;;2065331;28;20097;-74
2021/06/03 05:16:26;;;;;;;9.90;5.43;;;25.20;42.40;;;;;;2057610;28;20026;-73
2021/06/03 05:17:27;;;;;;;6.45;5.00;;;25.00;41.90;;;;;;2057458;28;20027;-73
2021/06/03 05:18:27;;;;;;;5.88;5.22;;;25.10;42.00;;;;;;2065580;28;20580;-74
2021/06/03 05:19:28;;;;;;;8.52;5.07;;;25.20;41.80;;;;;;2056915;28;20034;-73
2021/06/03 05:20:30;;;;;;;7.63;5.07;;;25.20;41.40;;;;;;2049039;28;20027;-74
2021/06/03 05:21:31;;;;;;;6.22;5.20;;;25.10;41.30;;;;;;2057290;28;20031;-73
2021/06/03 05:22:31;;;;;;;8.00;5.03;;;25.20;41.40;;;;;;2065695;28;20499;-73
2021/06/03 05:23:32;;;;;;;9.98;4.90;;;25.20;40.80;;;;;;2065635;28;20077;-73
2021/06/03 05:24:33;;;;;;;7.05;4.90;;;25.10;41.20;;;;;;2065194;28;20112;-74
2021/06/03 05:25:34;;;;;;;7.20;5.35;;;25.20;41.30;;;;;;2065680;28;20011;-73
2021/06/03 05:26:35;;;;;;;7.40;5.28;;;24.90;40.50;;;;;;2057665;28;20146;-73